Time;durP1;ratioP1;P1;durP2;ratioP2;P2;SDS_P1;SDS_P2;PMS_P1;PMS_P2;Temp;Humidity;BMP_temperature;BMP_pressure;BME280_temperature;BME280_humidity;BME280_pressure;Samples;Min_cycle;Max_cycle;Signal;HPM_P1;HPM_P2
2021/04/05 00:02:08;;;;;;;10.57;3.35;;;10.40;60.10;;;;;;5074604;28;20488;-51
2021/04/05 00:04:34;;;;;;;10.38;4.20;;;10.40;60.20;;;;;;5074553;28;20111;-51
2021/04/05 00:06:59;;;;;;;7.43;2.92;;;10.40;60.20;;;;;;5074655;28;20091;-51
2021/04/05 00:09:25;;;;;;;7.05;3.40;;;10.30;60.20;;;;;;5074218;28;20024;-51
2021/04/05 00:11:50;;;;;;;5.88;2.85;;;10.30;60.20;;;;;;5074686;28;20086;-51
2021/04/05 00:14:16;;;;;;;6.32;3.03;;;10.30;60.20;;;;;;5074098;28;20021;-56
2021/04/05 00:16:42;;;;;;;14.32;3.58;;;10.30;61.10;;;;;;5074197;28;20040;-51
2021/04/05 00:19:08;;;;;;;7.53;3.10;;;10.30;60.40;;;;;;5074189;28;20107;-51
2021/04/05 00:21:33;;;;;;;11.52;3.92;;;10.30;60.40;;;;;;5074461;28;20021;-51
2021/04/05 00:23:59;;;;;;;6.75;3.40;;;10.30;60.40;;;;;;5074046;28;20361;-51
2021/04/05 00:26:24;;;;;;;10.43;3.55;;;10.30;60.40;;;;;;5074135;28;20089;-51
2021/04/05 00:28:50;;;;;;;9.15;3.75;;;10.30;60.40;;;;;;5073759;28;20074;-51
2021/04/05 00:31:16;;;;;;;4.85;2.90;;;10.30;60.50;;;;;;5073878;28;20433;-51
2021/04/05 00:33:42;;;;;;;9.32;3.28;;;10.30;60.50;;;;;;5072796;28;20112;-51
2021/04/05 00:36:08;;;;;;;9.63;4.18;;;10.30;60.60;;;;;;5074318;28;20217;-51
2021/04/05 00:38:34;;;;;;;7.93;3.95;;;10.20;60.50;;;;;;5073606;28;20480;-51
2021/04/05 00:41:05;;;;;;;7.15;3.58;;;10.20;60.60;;;;;;5073933;28;20024;-51
2021/04/05 00:43:34;;;;;;;8.10;3.33;;;10.20;60.70;;;;;;5073666;28;20032;-51
2021/04/05 00:46:00;;;;;;;6.00;3.03;;;10.20;60.70;;;;;;5073717;28;20060;-51
2021/04/05 00:48:26;;;;;;;7.40;2.88;;;10.20;60.70;;;;;;5072399;28;20068;-51
2021/04/05 00:50:58;;;;;;;15.23;3.20;;;10.20;60.80;;;;;;5073759;28;20442;-51
2021/04/05 00:53:35;;;;;;;9.10;3.67;;;10.20;60.80;;;;;;5073681;28;20070;-51
2021/04/05 00:56:02;;;;;;;10.85;3.35;;;10.20;60.80;;;;;;5073379;28;20025;-52
2021/04/05 00:58:28;;;;;;;9.05;3.85;;;10.20;60.90;;;;;;5073429;28;20043;-51
2021/04/05 01:00:59;;;;;;;9.05;3.90;;;10.20;61.00;;;;;;5073621;28;20032;-51
2021/04/05 01:03:26;;;;;;;9.98;3.83;;;10.20;61.00;;;;;;5073591;28;20063;-51
2021/04/05 01:05:57;;;;;;;5.63;3.00;;;10.20;60.90;;;;;;5073614;28;20028;-52
2021/04/05 01:08:23;;;;;;;4.93;2.83;;;10.20;61.00;;;;;;5073117;28;20036;-51
2021/04/05 01:10:49;;;;;;;11.00;3.83;;;10.20;61.00;;;;;;5073150;28;20139;-51
2021/04/05 01:13:16;;;;;;;10.80;3.55;;;10.20;61.10;;;;;;5073452;28;20029;-52
2021/04/05 01:15:42;;;;;;;12.30;3.50;;;10.10;61.00;;;;;;5073422;28;20024;-51
2021/04/05 01:18:08;;;;;;;6.60;3.05;;;10.10;61.10;;;;;;5073334;28;20051;-51
2021/04/05 01:20:34;;;;;;;8.07;3.55;;;10.10;61.10;;;;;;5072899;28;20051;-52
2021/04/05 01:23:01;;;;;;;8.85;3.40;;;10.10;61.10;;;;;;5073355;28;20507;-51
2021/04/05 01:25:27;;;;;;;9.23;2.95;;;10.10;61.10;;;;;;5073192;28;20063;-52
2021/04/05 01:27:54;;;;;;;6.88;3.38;;;10.10;61.20;;;;;;5073240;28;20060;-51
2021/04/05 01:30:27;;;;;;;6.03;2.75;;;10.10;61.20;;;;;;5073189;28;20032;-51
2021/04/05 01:33:12;;;;;;;7.75;3.30;;;10.10;61.20;;;;;;5073352;28;20024;-51
2021/04/05 01:35:45;;;;;;;5.57;3.28;;;10.10;61.30;;;;;;5072924;28;20024;-51
2021/04/05 01:38:12;;;;;;;9.55;3.22;;;10.10;61.30;;;;;;5073245;28;20113;-51
2021/04/05 01:40:40;;;;;;;8.68;3.50;;;10.10;61.30;;;;;;5072733;28;20032;-51
2021/04/05 01:43:07;;;;;;;8.07;3.22;;;10.10;61.30;;;;;;5057446;28;20025;-51
2021/04/05 01:45:33;;;;;;;6.70;3.63;;;10.00;61.40;;;;;;5052824;28;20029;-51
2021/04/05 01:47:59;;;;;;;5.80;3.28;;;10.00;61.30;;;;;;5052843;28;20084;-52
2021/04/05 01:50:25;;;;;;;8.48;3.40;;;10.00;61.40;;;;;;5052288;28;20366;-51
2021/04/05 01:52:51;;;;;;;6.15;3.03;;;10.00;61.50;;;;;;5053038;28;20029;-52
2021/04/05 01:55:17;;;;;;;7.15;3.03;;;10.10;61.50;;;;;;5052544;28;20021;-51
2021/04/05 01:57:43;;;;;;;7.32;2.95;;;10.00;61.50;;;;;;5053032;28;20033;-52
2021/04/05 02:00:13;;;;;;;8.93;3.08;;;10.00;61.50;;;;;;5055352;28;20029;-51
2021/04/05 02:02:40;;;;;;;6.90;2.80;;;10.00;61.50;;;;;;5057298;28;20032;-52
2021/04/05 02:05:10;;;;;;;6.45;3.05;;;10.00;61.50;;;;;;5056578;28;20601;-51
2021/04/05 02:07:37;;;;;;;6.13;3.30;;;10.00;61.60;;;;;;5056760;28;20369;-51
2021/04/05 02:10:10;;;;;;;5.25;3.08;;;10.00;61.60;;;;;;5056480;28;20017;-51
2021/04/05 02:12:36;;;;;;;9.32;3.08;;;10.00;61.60;;;;;;5056782;28;20096;-51
2021/04/05 02:15:06;;;;;;;9.07;3.03;;;10.00;61.70;;;;;;5056705;28;20100;-52
2021/04/05 02:17:31;;;;;;;7.03;3.03;;;10.00;61.70;;;;;;5056439;28;20463;-51
2021/04/05 02:19:57;;;;;;;5.97;3.05;;;10.00;61.70;;;;;;5056342;28;20116;-52
2021/04/05 02:22:23;;;;;;;7.88;3.13;;;10.00;61.70;;;;;;5056592;28;20032;-51
2021/04/05 02:24:48;;;;;;;10.48;2.83;;;10.00;61.80;;;;;;5056349;28;20225;-52
2021/04/05 02:27:14;;;;;;;12.18;3.95;;;9.90;62.50;;;;;;5056543;28;20146;-51
2021/04/05 02:29:40;;;;;;;6.28;3.25;;;9.90;61.80;;;;;;5056055;28;20051;-52
2021/04/05 02:32:06;;;;;;;7.68;3.30;;;9.90;61.80;;;;;;5056273;28;20522;-52
2021/04/05 02:34:32;;;;;;;10.30;3.35;;;9.90;61.80;;;;;;5056466;28;20036;-51
2021/04/05 02:36:57;;;;;;;6.50;2.78;;;9.90;61.90;;;;;;5056310;28;20029;-51
2021/04/05 02:39:23;;;;;;;8.73;3.33;;;9.90;61.80;;;;;;5055993;28;20075;-51
2021/04/05 02:41:50;;;;;;;8.07;3.03;;;9.90;61.90;;;;;;5056198;28;20029;-52
2021/04/05 02:44:18;;;;;;;9.57;3.15;;;9.90;61.90;;;;;;5056155;28;20347;-51
2021/04/05 02:46:46;;;;;;;7.38;3.10;;;9.90;62.00;;;;;;5056374;28;20119;-51
2021/04/05 02:49:14;;;;;;;10.65;3.22;;;9.90;62.10;;;;;;5055854;28;20029;-51
2021/04/05 02:51:48;;;;;;;5.65;3.00;;;9.90;61.90;;;;;;5056161;28;20021;-51
2021/04/05 02:54:18;;;;;;;6.25;2.88;;;9.90;62.10;;;;;;5056209;28;20033;-52
2021/04/05 02:56:53;;;;;;;8.68;2.42;;;9.90;62.00;;;;;;5055831;28;20032;-51
2021/04/05 02:59:20;;;;;;;6.47;2.58;;;9.90;62.10;;;;;;5072674;28;20043;-52
2021/04/05 03:01:47;;;;;;;3.53;2.50;;;9.80;62.00;;;;;;5075934;28;20357;-51
2021/04/05 03:04:13;;;;;;;7.72;2.90;;;9.80;62.00;;;;;;5075792;28;20028;-51
2021/04/05 03:06:39;;;;;;;12.38;3.67;;;9.80;62.10;;;;;;5075883;28;20021;-51
2021/04/05 03:09:06;;;;;;;6.80;2.70;;;9.80;62.10;;;;;;5075208;28;20028;-51
2021/04/05 03:11:34;;;;;;;5.13;3.05;;;9.80;62.10;;;;;;5074700;28;20033;-51
2021/04/05 03:14:03;;;;;;;8.50;2.80;;;9.90;62.20;;;;;;5075498;28;20025;-52
2021/04/05 03:16:31;;;;;;;5.35;2.97;;;9.80;62.10;;;;;;5075585;28;20345;-52
2021/04/05 03:19:01;;;;;;;8.98;3.17;;;9.80;62.20;;;;;;5075076;28;20025;-51
2021/04/05 03:21:27;;;;;;;5.07;2.60;;;9.80;62.10;;;;;;5075684;28;20031;-51
2021/04/05 03:23:53;;;;;;;4.93;2.30;;;9.80;62.20;;;;;;5074126;28;20024;-51
2021/04/05 03:26:19;;;;;;;5.68;3.05;;;9.80;62.20;;;;;;5074831;28;20158;-51
2021/04/05 03:28:45;;;;;;;5.05;2.75;;;9.80;62.30;;;;;;5075362;28;20024;-52
2021/04/05 03:31:18;;;;;;;5.95;2.80;;;9.80;62.20;;;;;;5075527;28;20020;-51
2021/04/05 03:33:59;;;;;;;4.45;2.72;;;9.80;62.20;;;;;;5075474;28;20020;-52
2021/04/05 03:36:27;;;;;;;;;;;9.80;62.40;;;;;;5076334;28;20023;-51
2021/04/05 03:38:55;;;;;;;5.00;2.25;;;9.80;62.30;;;;;;5074596;28;19909;-51
2021/04/05 03:41:33;;;;;;;5.85;2.33;;;9.80;62.40;;;;;;5075217;28;20411;-51
2021/04/05 03:44:30;;;;;;;4.35;2.20;;;9.80;62.40;;;;;;5075179;28;20025;-51
2021/04/05 03:47:01;;;;;;;5.90;2.72;;;9.80;62.40;;;;;;5075068;28;20028;-51
2021/04/05 03:49:39;;;;;;;7.93;2.55;;;9.80;62.40;;;;;;5074733;28;20028;-51
2021/04/05 03:52:08;;;;;;;4.80;2.40;;;9.70;62.40;;;;;;5075062;28;20166;-51
2021/04/05 03:54:44;;;;;;;7.28;2.10;;;9.70;62.40;;;;;;5074927;28;20083;-52
2021/04/05 03:57:13;;;;;;;8.35;2.65;;;9.80;62.50;;;;;;5074900;28;20048;-51
2021/04/05 03:59:43;;;;;;;3.58;1.95;;;9.70;62.50;;;;;;5073932;28;20453;-51
2021/04/05 04:02:20;;;;;;;5.38;2.45;;;9.70;62.50;;;;;;5074874;28;20124;-52
2021/04/05 04:05:00;;;;;;;6.30;2.42;;;9.70;62.50;;;;;;5074977;28;20039;-52
2021/04/05 04:07:36;;;;;;;5.95;2.75;;;9.70;62.50;;;;;;5074624;28;20119;-51
2021/04/05 04:10:10;;;;;;;5.03;2.92;;;9.70;62.50;;;;;;5073919;28;20028;-51
2021/04/05 04:12:39;;;;;;;5.80;3.15;;;9.70;62.50;;;;;;5074824;28;20029;-51
2021/04/05 04:15:06;;;;;;;7.35;3.03;;;9.70;62.60;;;;;;5074608;28;20031;-51
2021/04/05 04:17:36;;;;;;;5.30;2.70;;;9.70;62.60;;;;;;5074898;28;20020;-51
2021/04/05 04:20:10;;;;;;;5.63;2.40;;;9.70;62.60;;;;;;5073996;28;20108;-51
2021/04/05 04:22:36;;;;;;;6.75;2.72;;;9.70;62.70;;;;;;5074116;28;20028;-51
2021/04/05 04:25:04;;;;;;;6.38;2.83;;;9.70;62.60;;;;;;5074148;28;20037;-51
2021/04/05 04:27:30;;;;;;;8.65;2.33;;;9.70;62.70;;;;;;5074293;28;20083;-52
2021/04/05 04:29:56;;;;;;;4.88;2.90;;;9.70;62.60;;;;;;5074132;28;20021;-52
2021/04/05 04:32:23;;;;;;;4.90;2.40;;;9.70;62.70;;;;;;5074181;28;20056;-51
2021/04/05 04:34:48;;;;;;;7.93;2.95;;;9.70;62.60;;;;;;5074031;28;20021;-52
2021/04/05 04:37:15;;;;;;;3.45;2.22;;;9.70;62.70;;;;;;5073903;28;20086;-51
2021/04/05 04:39:40;;;;;;;4.28;2.20;;;9.70;62.70;;;;;;5070678;28;20442;-51
2021/04/05 04:42:07;;;;;;;6.65;3.08;;;9.70;62.80;;;;;;5064113;28;20028;-52
2021/04/05 04:44:33;;;;;;;5.57;2.30;;;9.70;62.70;;;;;;5053886;28;20025;-52
2021/04/05 04:46:58;;;;;;;7.38;2.30;;;9.70;62.70;;;;;;5064979;28;20033;-51
2021/04/05 04:49:24;;;;;;;6.90;2.15;;;9.70;62.70;;;;;;5066881;28;20020;-52
2021/04/05 04:51:50;;;;;;;5.65;2.90;;;9.70;62.80;;;;;;5073458;28;20040;-52
2021/04/05 04:54:15;;;;;;;4.78;2.20;;;9.70;62.80;;;;;;5073741;28;20032;-51
2021/04/05 04:56:41;;;;;;;3.95;2.40;;;9.70;62.80;;;;;;5073514;28;20107;-51
2021/04/05 04:59:09;;;;;;;5.88;2.33;;;9.70;62.80;;;;;;5073068;28;20030;-52
2021/04/05 05:01:37;;;;;;;4.78;2.20;;;9.70;62.90;;;;;;5073585;28;20029;-52
2021/04/05 05:04:07;;;;;;;3.83;2.40;;;9.60;62.80;;;;;;5073290;28;20024;-52
2021/04/05 05:06:34;;;;;;;5.57;2.42;;;9.70;62.80;;;;;;5073602;28;20029;-52
2021/04/05 05:09:01;;;;;;;3.85;2.25;;;9.70;62.90;;;;;;5072908;28;20484;-51
2021/04/05 05:11:27;;;;;;;6.47;2.22;;;9.70;62.90;;;;;;5073376;28;20050;-52
2021/04/05 05:13:56;;;;;;;8.00;3.10;;;9.70;62.90;;;;;;5073477;28;20020;-51
2021/04/05 05:16:24;;;;;;;9.20;2.15;;;9.70;62.90;;;;;;5073293;28;20365;-52
2021/04/05 05:18:56;;;;;;;3.83;2.08;;;9.60;62.90;;;;;;5072780;28;20032;-51
2021/04/05 05:21:31;;;;;;;3.70;2.10;;;9.60;62.90;;;;;;5073520;28;20024;-51
2021/04/05 05:24:02;;;;;;;7.72;2.85;;;9.60;62.90;;;;;;5073304;28;20362;-51
2021/04/05 05:26:28;;;;;;;6.10;2.72;;;9.60;63.00;;;;;;5072967;28;20051;-51
2021/04/05 05:28:57;;;;;;;2.53;1.90;;;9.60;63.00;;;;;;5073432;28;20079;-51
2021/04/05 05:31:23;;;;;;;6.15;2.15;;;9.60;63.00;;;;;;5066570;28;20048;-52
2021/04/05 05:33:49;;;;;;;6.60;2.83;;;9.60;63.00;;;;;;5053592;28;20694;-51
2021/04/05 05:36:16;;;;;;;5.65;2.20;;;9.70;63.20;;;;;;5053119;28;20469;-52
2021/04/05 05:38:46;;;;;;;2.58;1.98;;;9.70;63.20;;;;;;5072011;28;20345;-51
2021/04/05 05:41:27;;;;;;;5.13;2.50;;;9.70;63.20;;;;;;5072855;28;20030;-51
2021/04/05 05:44:04;;;;;;;3.03;1.77;;;9.70;63.20;;;;;;5072802;28;20064;-51
2021/04/05 05:46:41;;;;;;;5.55;2.53;;;9.70;63.30;;;;;;5072782;28;20033;-51
2021/04/05 05:49:21;;;;;;;3.63;2.05;;;9.70;63.30;;;;;;5065772;28;20037;-51
2021/04/05 05:51:56;;;;;;;7.65;3.15;;;9.80;63.40;;;;;;5062401;28;20029;-51
2021/04/05 05:55:04;;;;;;;9.95;2.60;;;9.80;63.40;;;;;;5061385;28;20056;-51
2021/04/05 05:57:46;;;;;;;6.45;2.35;;;9.80;63.30;;;;;;5056494;28;20361;-52
2021/04/05 06:00:23;;;;;;;8.68;2.22;;;9.80;63.50;;;;;;5063042;28;20020;-52
2021/04/05 06:03:04;;;;;;;5.55;2.35;;;9.80;63.40;;;;;;5062717;28;20023;-51
2021/04/05 06:06:00;;;;;;;5.22;1.92;;;9.90;64.00;;;;;;5062666;28;20390;-52
2021/04/05 06:08:31;;;;;;;6.15;1.90;;;9.90;64.10;;;;;;5064458;28;20037;-51
2021/04/05 06:11:15;;;;;;;2.05;1.35;;;9.90;64.20;;;;;;5062389;28;20655;-52
2021/04/05 06:14:16;;;;;;;3.75;2.15;;;10.00;64.20;;;;;;5063363;28;20048;-52
2021/04/05 06:16:47;;;;;;;5.30;2.00;;;10.00;64.00;;;;;;5062971;28;20024;-52
2021/04/05 06:19:51;;;;;;;4.30;1.88;;;10.00;64.00;;;;;;5052082;28;20025;-52
2021/04/05 06:22:55;;;;;;;3.58;1.58;;;10.10;64.30;;;;;;5052560;28;20366;-51
2021/04/05 06:25:55;;;;;;;1.08;0.77;;;10.20;64.60;;;;;;5043932;28;20138;-52
2021/04/05 06:29:08;;;;;;;1.90;1.40;;;10.20;64.40;;;;;;5052368;28;20033;-51
2021/04/05 06:31:43;;;;;;;2.40;1.60;;;10.20;64.50;;;;;;5052316;28;20025;-51
2021/04/05 06:34:28;;;;;;;2.72;1.42;;;10.20;64.40;;;;;;5052636;28;20346;-51
2021/04/05 06:37:20;;;;;;;7.60;1.75;;;10.20;64.20;;;;;;5052592;28;20049;-52
2021/04/05 06:39:49;;;;;;;5.30;2.13;;;10.20;64.40;;;;;;5057644;28;20472;-51
2021/04/05 06:42:42;;;;;;;8.55;2.05;;;10.30;63.80;;;;;;5055020;28;20036;-51
2021/04/05 06:45:27;;;;;;;2.15;1.30;;;10.30;63.80;;;;;;5060865;28;20036;-51
2021/04/05 06:48:16;;;;;;;5.90;1.65;;;10.30;64.70;;;;;;5075824;28;20036;-51
2021/04/05 06:51:09;;;;;;;3.55;1.95;;;10.40;63.60;;;;;;5055989;28;20021;-51
2021/04/05 06:53:53;;;;;;;2.75;1.42;;;10.40;63.70;;;;;;5055553;28;20040;-51
2021/04/05 06:56:38;;;;;;;5.03;2.40;;;10.40;63.70;;;;;;5055942;28;20029;-51
2021/04/05 06:59:14;;;;;;;3.65;2.00;;;10.50;64.20;;;;;;5075971;28;20024;-51
2021/04/05 07:02:15;;;;;;;4.60;2.42;;;10.50;64.50;;;;;;5075896;28;20108;-51
2021/04/05 07:05:06;;;;;;;5.93;2.15;;;10.50;64.10;;;;;;5072848;28;20377;-52
2021/04/05 07:07:38;;;;;;;9.10;2.50;;;10.50;64.90;;;;;;5043976;28;20094;-52
